Time;durP1;ratioP1;P1;durP2;ratioP2;P2;SDS_P1;SDS_P2;PMS_P1;PMS_P2;Temp;Humidity;BMP_temperature;BMP_pressure;BME280_temperature;BME280_humidity;BME280_pressure;Samples;Min_cycle;Max_cycle;Signal;HPM_P1;HPM_P2
2022/02/19 00:02:18;;;;;;;1.60;1.30;;;;;;;18.77;45.92;96844.25;4831622;29;20207;-87
2022/02/19 00:04:44;;;;;;;1.63;1.53;;;;;;;18.77;45.37;96844.25;4849543;29;20744;-86
2022/02/19 00:07:12;;;;;;;1.50;1.40;;;;;;;18.39;45.90;96784.59;4834094;29;20207;-86
2022/02/19 00:09:38;;;;;;;1.63;1.50;;;;;;;18.70;46.08;96839.78;4838138;29;20206;-87
2022/02/19 00:12:05;;;;;;;1.30;1.20;;;;;;;18.68;45.94;96844.81;4864044;29;20748;-86
2022/02/19 00:14:32;;;;;;;1.40;1.30;;;;;;;18.78;45.83;96857.03;4864493;29;20736;-86
2022/02/19 00:16:59;;;;;;;2.00;1.50;;;;;;;18.78;45.69;96849.38;4836230;29;20262;-86
2022/02/19 00:19:26;;;;;;;1.50;1.40;;;;;;;18.78;45.65;96843.44;4831242;29;20211;-87
2022/02/19 00:21:52;;;;;;;1.40;1.20;;;;;;;18.56;45.67;96821.56;4830776;29;20283;-87
2022/02/19 00:24:19;;;;;;;2.07;1.23;;;;;;;18.78;45.66;96856.16;4830896;29;20226;-87
2022/02/19 00:26:46;;;;;;;2.27;1.60;;;;;;;18.75;45.98;96861.16;4831066;29;20214;-87
2022/02/19 00:29:13;;;;;;;2.23;1.40;;;;;;;18.78;45.74;96869.75;4845824;29;20215;-87
2022/02/19 00:31:39;;;;;;;1.87;1.30;;;;;;;18.78;45.64;96871.44;4845713;29;20370;-86
2022/02/19 00:34:06;;;;;;;2.20;1.30;;;;;;;18.76;45.83;96876.47;4845681;29;20219;-86
2022/02/19 00:36:33;;;;;;;2.47;1.50;;;;;;;18.65;45.76;96854.91;4845052;29;20236;-87
2022/02/19 00:39:00;;;;;;;2.40;1.40;;;;;;;18.41;45.89;96812.63;4845829;29;20207;-86
2022/02/19 00:41:26;;;;;;;1.57;1.40;;;;;;;18.61;45.68;96844.59;4845205;29;20256;-86
2022/02/19 00:43:53;;;;;;;1.40;1.30;;;;;;;18.76;45.71;96884.09;4848410;29;20234;-87
2022/02/19 00:46:20;;;;;;;1.67;1.30;;;;;;;18.47;45.76;96830.63;4849147;29;20208;-87
2022/02/19 00:48:46;;;;;;;2.40;1.40;;;;;;;18.74;45.61;96893.38;4847596;29;20222;-87
2022/02/19 00:51:16;;;;;;;2.10;1.43;;;;;;;18.72;45.55;96895.03;4845690;29;20246;-86
2022/02/19 00:53:43;;;;;;;1.80;1.27;;;;;;;18.70;45.73;96888.13;4830559;29;20259;-87
2022/02/19 00:56:10;;;;;;;1.30;1.20;;;;;;;18.73;45.86;96900.97;4831743;29;20226;-86
2022/02/19 00:58:37;;;;;;;1.50;1.40;;;;;;;18.73;45.89;96906.91;4835005;29;20207;-87
2022/02/19 01:01:04;;;;;;;1.60;1.33;;;;;;;18.73;45.77;96900.97;4845441;29;20263;-86
2022/02/19 01:43:53;;;;;;;2.60;1.50;;;;;;;18.57;45.23;96917.47;5566345;23;20254;-86
2022/02/19 01:46:20;;;;;;;1.70;1.40;;;;;;;18.64;44.97;96931.22;4847854;29;20199;-86
2022/02/19 01:48:47;;;;;;;2.30;1.50;;;;;;;18.72;45.41;96948.47;4848300;29;20650;-85
2022/02/19 01:51:18;;;;;;;1.33;1.13;;;;;;;18.56;45.23;96919.97;4849548;29;20289;-86
2022/02/19 01:53:44;;;;;;;1.93;1.50;;;;;;;18.69;45.19;96932.22;4848783;29;20664;-85
2022/02/19 01:56:12;;;;;;;1.77;1.47;;;;;;;18.74;45.39;96951.91;4847490;29;20209;-87
2022/02/19 01:58:38;;;;;;;1.87;1.53;;;;;;;18.42;45.24;96895.75;4863752;29;20222;-86
2022/02/19 02:01:06;;;;;;;1.60;1.50;;;;;;;18.64;45.38;96933.75;4847494;29;20362;-86
2022/02/19 02:03:33;;;;;;;1.97;1.30;;;;;;;18.42;45.06;96900.84;4849622;29;20673;-86
2022/02/19 02:06:00;;;;;;;2.30;1.53;;;;;;;18.77;45.23;96959.63;4846330;29;20473;-85
2022/02/19 02:08:26;;;;;;;2.47;1.63;;;;;;;18.43;45.14;96905.97;4851678;29;20269;-85
2022/02/19 02:10:53;;;;;;;2.63;1.57;;;;;;;18.77;45.15;96962.19;4851296;29;20225;-86
2022/02/19 02:13:20;;;;;;;2.27;1.60;;;;;;;18.50;45.19;96919.75;4833074;29;20275;-86
2022/02/19 02:15:47;;;;;;;3.53;1.60;;;;;;;18.78;45.19;96978.34;4847879;29;20274;-86
2022/02/19 02:18:13;;;;;;;3.40;1.50;;;;;;;18.78;44.96;96978.34;4833037;29;20211;-85
2022/02/19 02:20:40;;;;;;;2.33;1.60;;;;;;;18.78;44.79;96983.41;4856865;29;20752;-86
2022/02/19 02:23:08;;;;;;;1.97;1.40;;;;;;;18.77;44.53;96984.25;4851111;29;20202;-86
2022/02/19 02:25:34;;;;;;;2.10;1.67;;;;;;;18.46;45.11;96928.97;4850876;29;20230;-86
2022/02/19 02:28:04;;;;;;;2.03;1.60;;;;;;;18.04;44.84;96862.31;4851060;29;20202;-86
2022/02/19 02:30:31;;;;;;;2.70;1.67;;;;;;;18.75;44.91;96984.19;4851636;29;20308;-86
2022/02/19 02:33:08;;;;;;;2.80;1.50;;;;;;;18.75;45.06;96978.25;4851562;29;20270;-85
2022/02/19 02:35:35;;;;;;;1.53;1.43;;;;;;;18.35;45.08;96920.09;4851197;29;20262;-85
2022/02/19 02:38:02;;;;;;;1.47;1.20;;;;;;;18.40;44.77;96922.81;4851135;29;20206;-85
2022/02/19 02:40:30;;;;;;;1.90;1.50;;;;;;;18.72;44.92;96976.47;4850898;29;20203;-85
2022/02/19 02:42:57;;;;;;;2.33;1.50;;;;;;;18.39;44.90;96919.44;4864747;29;20933;-85
2022/02/19 02:45:24;;;;;;;2.30;1.40;;;;;;;18.43;44.84;96928.88;4863648;29;20692;-85
2022/02/19 02:48:10;;;;;;;2.57;1.57;;;;;;;18.61;44.83;96951.47;4871404;29;20289;-86
2022/02/19 02:50:37;;;;;;;2.27;1.40;;;;;;;18.41;44.88;96924.56;4850126;29;20712;-85
2022/02/19 02:53:26;;;;;;;1.60;1.50;;;;;;;18.70;44.93;96983.19;4871534;29;20376;-85
2022/02/19 02:55:53;;;;;;;2.03;1.40;;;;;;;18.62;45.19;96964.25;4850935;29;20222;-85
2022/02/19 02:58:19;;;;;;;2.10;1.47;;;;;;;18.41;44.77;96934.75;4851047;29;20211;-85
2022/02/19 03:00:46;;;;;;;2.50;1.73;;;;;;;18.69;44.83;96975.50;4850767;29;20214;-86
2022/02/19 04:16:06;;;;;;;2.50;1.47;;;;;;;18.73;44.47;97087.63;4976010;23;20262;-85
2022/02/19 04:18:33;;;;;;;2.70;1.40;;;;;;;18.68;43.99;97088.31;4831283;29;20258;-85
2022/02/19 04:20:59;;;;;;;4.47;1.73;;;;;;;18.83;44.38;97101.53;4845781;29;20645;-85
2022/02/19 04:23:26;;;;;;;2.20;1.57;;;;;;;18.60;43.90;97067.69;4831493;29;20642;-86
2022/02/19 04:25:53;;;;;;;2.67;1.70;;;;;;;18.84;44.09;97109.22;4864034;29;20230;-85
2022/02/19 04:28:21;;;;;;;2.10;1.60;;;;;;;18.85;44.17;97118.59;4864539;29;20736;-85
2022/02/19 04:30:48;;;;;;;1.37;1.23;;;;;;;18.85;44.28;97118.59;4857507;29;20638;-85
2022/02/19 04:33:15;;;;;;;2.43;1.50;;;;;;;18.85;44.28;97121.13;4831047;29;20728;-85
2022/02/19 04:35:42;;;;;;;2.30;1.30;;;;;;;18.75;44.65;97113.13;4830863;29;20271;-85
2022/02/19 04:38:08;;;;;;;1.97;1.50;;;;;;;18.85;44.12;97133.00;4830874;29;20426;-85
2022/02/19 04:40:35;;;;;;;1.43;1.30;;;;;;;18.44;44.30;97060.34;4835178;29;20202;-85
2022/02/19 04:43:02;;;;;;;1.60;1.30;;;;;;;18.85;44.47;97133.00;4864328;29;20262;-85
2022/02/19 04:45:28;;;;;;;2.57;1.50;;;;;;;18.84;44.24;97137.25;4863879;29;20230;-85
2022/02/19 04:47:56;;;;;;;1.70;1.30;;;;;;;18.59;44.33;97095.63;4864358;29;20202;-85
2022/02/19 04:50:22;;;;;;;2.57;1.70;;;;;;;18.84;44.17;97134.69;4858804;29;21316;-85
2022/02/19 04:52:49;;;;;;;1.97;1.37;;;;;;;18.84;43.92;97139.78;4830946;29;20263;-85
2022/02/19 04:55:15;;;;;;;2.83;1.60;;;;;;;18.84;43.67;97144.88;4827535;29;20486;-86
2022/02/19 04:57:45;;;;;;;2.40;1.33;;;;;;;18.74;44.00;97136.88;4864096;29;20202;-85
2022/02/19 05:00:15;;;;;;;1.77;1.20;;;;;;;18.68;44.10;97127.34;4860980;29;20207;-85
2022/02/19 05:02:42;;;;;;;2.17;1.40;;;;;;;18.84;44.04;97157.59;4830828;29;20262;-86
2022/02/19 05:05:09;;;;;;;1.57;1.40;;;;;;;18.80;44.02;97149.81;4827250;29;20227;-85
2022/02/19 05:07:36;;;;;;;4.83;1.40;;;;;;;18.76;44.23;97147.94;4842070;29;20260;-85
2022/02/19 05:10:03;;;;;;;2.10;1.30;;;;;;;18.74;43.90;97141.97;4861191;29;20211;-86
2022/02/19 05:12:30;;;;;;;2.00;1.47;;;;;;;18.84;43.83;97170.34;4863717;29;20254;-84
2022/02/19 05:14:57;;;;;;;1.90;1.30;;;;;;;18.85;44.18;97158.44;4847296;29;20704;-86
2022/02/19 05:17:24;;;;;;;2.53;1.67;;;;;;;18.29;43.87;97077.59;4830800;29;20211;-85
2022/02/19 05:19:51;;;;;;;2.93;1.50;;;;;;;18.85;43.94;97163.53;4830625;29;20238;-85
2022/02/19 05:22:17;;;;;;;2.07;1.30;;;;;;;18.57;43.72;97122.69;4846250;29;20585;-85
2022/02/19 05:24:44;;;;;;;1.70;1.40;;;;;;;18.46;43.63;97113.81;4826925;29;20303;-85
2022/02/19 05:27:12;;;;;;;2.40;1.57;;;;;;;18.84;43.42;97177.97;4857292;29;20264;-85
2022/02/19 05:29:38;;;;;;;1.73;1.33;;;;;;;18.85;43.77;97173.72;4842186;29;20215;-85
2022/02/19 05:32:05;;;;;;;1.77;1.40;;;;;;;18.65;43.60;97150.13;4850194;29;20202;-85
2022/02/19 05:34:32;;;;;;;1.40;1.17;;;;;;;18.84;43.46;97183.06;4863623;29;20230;-85
2022/02/19 05:36:58;;;;;;;1.93;1.40;;;;;;;18.84;43.67;97185.59;4866631;29;20267;-85
2022/02/19 05:39:25;;;;;;;2.60;1.60;;;;;;;18.75;43.57;97175.09;4867915;29;20210;-85
2022/02/19 05:41:52;;;;;;;3.40;1.60;;;;;;;18.84;43.79;97193.25;4859799;29;20212;-85
2022/02/19 05:44:18;;;;;;;1.80;1.50;;;;;;;18.84;43.85;97205.97;4832974;29;20280;-85
2022/02/19 05:46:47;;;;;;;3.17;1.60;;;;;;;18.83;43.58;97199.13;4834537;29;20215;-85
2022/02/19 05:49:14;;;;;;;2.67;1.70;;;;;;;18.83;43.69;97208.47;4832866;29;20887;-84
2022/02/19 05:51:41;;;;;;;1.93;1.40;;;;;;;18.67;43.51;97183.28;4834936;29;20451;-85
2022/02/19 05:54:08;;;;;;;3.23;1.60;;;;;;;18.83;43.64;97214.41;4866810;29;20218;-85
2022/02/19 05:56:35;;;;;;;2.20;1.73;;;;;;;18.66;43.52;97195.16;4867206;29;20242;-84
2022/02/19 05:59:01;;;;;;;2.60;1.73;;;;;;;18.84;43.29;97236.53;4867271;29;20206;-85
2022/02/19 06:01:28;;;;;;;1.97;1.73;;;;;;;18.67;43.47;97203.63;4866398;29;20214;-86
2022/02/19 06:03:55;;;;;;;3.03;1.77;;;;;;;18.67;43.42;97214.69;4862540;29;20270;-90
2022/02/19 06:27:57;;;;;;;3.63;1.73;;;;;;;18.31;42.82;97197.19;5039661;23;20321;-85
2022/02/19 06:30:23;;;;;;;2.63;1.80;;;;;;;18.81;43.40;97289.00;4829090;29;20219;-88
2022/02/19 06:32:50;;;;;;;3.13;1.70;;;;;;;18.53;43.13;97245.56;4847817;29;20206;-87
2022/02/19 06:35:17;;;;;;;2.97;1.60;;;;;;;18.63;43.43;97251.03;4851389;29;20222;-87
2022/02/19 06:37:45;;;;;;;2.43;1.43;;;;;;;18.83;43.40;97300.97;4843119;29;20258;-87
2022/02/19 06:40:13;;;;;;;2.00;1.67;;;;;;;18.84;43.32;97299.28;4832359;29;20211;-86
2022/02/19 06:42:40;;;;;;;2.33;1.63;;;;;;;18.37;43.31;97227.94;4832528;29;20630;-87
2022/02/19 06:45:07;;;;;;;2.73;1.60;;;;;;;18.86;43.26;97312.97;4862825;29;20229;-87
2022/02/19 06:47:34;;;;;;;3.27;1.83;;;;;;;18.87;43.13;97317.22;4862109;29;20271;-87
2022/02/19 06:50:07;;;;;;;2.10;1.77;;;;;;;18.47;43.15;97252.97;4862631;29;20214;-87
2022/02/19 06:52:34;;;;;;;2.07;1.40;;;;;;;18.87;42.97;97318.09;4877611;29;20645;-87
2022/02/19 06:55:01;;;;;;;2.67;1.73;;;;;;;18.88;42.86;97324.03;4862706;29;20223;-87
2022/02/19 06:57:27;;;;;;;3.10;1.50;;;;;;;18.72;43.06;97314.13;4863024;29;20222;-87
2022/02/19 06:59:54;;;;;;;5.00;2.40;;;;;;;18.89;42.69;97331.75;4862983;29;20203;-86
2022/02/19 07:02:21;;;;;;;1.73;1.30;;;;;;;18.74;42.59;97313.34;4862524;29;20207;-86
2022/02/19 07:04:47;;;;;;;2.10;1.63;;;;;;;18.89;42.37;97353.81;4862475;29;20687;-87
2022/02/19 07:07:15;;;;;;;2.57;1.63;;;;;;;18.78;42.43;97332.16;4862507;29;20247;-87
2022/02/19 07:09:42;;;;;;;3.07;1.80;;;;;;;18.88;42.12;97369.88;4858420;29;20223;-86
2022/02/19 07:12:09;;;;;;;3.50;1.80;;;;;;;18.83;41.89;97363.78;4835757;29;20207;-87
2022/02/19 07:14:35;;;;;;;3.93;1.80;;;;;;;18.76;41.65;97365.22;4840654;29;20238;-87
2022/02/19 07:17:04;;;;;;;4.40;1.97;;;;;;;18.85;41.59;97379.94;4847541;29;20443;-87
2022/02/19 07:19:32;;;;;;;4.47;2.00;;;;;;;18.40;41.21;97305.28;4837834;29;20211;-87
2022/02/19 07:21:59;;;;;;;3.10;1.80;;;;;;;18.59;41.41;97352.66;4835086;29;20207;-87
2022/02/19 07:24:25;;;;;;;3.80;1.63;;;;;;;18.80;41.55;97382.31;4881456;23;20312;-82
2022/02/19 07:26:52;;;;;;;4.90;2.13;;;;;;;17.97;39.09;97256.97;4850057;29;20222;-81
2022/02/19 07:29:19;;;;;;;5.50;1.90;;;;;;;18.77;38.75;97404.28;4863884;29;20270;-81
2022/02/19 07:31:47;;;;;;;5.80;2.10;;;;;;;17.83;39.02;97257.25;4869734;29;20225;-80
2022/02/19 07:34:13;;;;;;;5.17;2.40;;;;;;;18.41;39.07;97364.69;4849626;29;20245;-78
2022/02/19 07:36:40;;;;;;;5.27;2.50;;;;;;;17.81;39.55;97258.84;4864594;29;20291;-80
2022/02/19 07:39:08;;;;;;;4.70;2.23;;;;;;;16.53;39.65;97049.56;4862655;29;20226;-80
2022/02/19 07:41:35;;;;;;;5.53;2.50;;;;;;;16.70;39.32;97089.19;4856545;29;20741;-79
2022/02/19 07:44:02;;;;;;;4.37;2.23;;;;;;;13.56;39.26;96529.75;4853221;29;20286;-81
2022/02/19 07:46:29;;;;;;;6.43;2.30;;;;;;;17.97;39.68;97297.63;4871576;29;20790;-81
2022/02/19 07:48:55;;;;;;;3.87;2.10;;;;;;;18.66;39.64;97452.22;4864276;29;20233;-82
2022/02/19 07:59:37;;;;;;;6.67;2.27;;;;;;;17.37;38.46;97229.09;4879208;29;20233;-81
2022/02/19 08:02:11;;;;;;;4.83;2.20;;;;;;;16.76;38.80;97136.00;4865586;29;20195;-82
2022/02/19 08:04:37;;;;;;;6.77;2.60;;;;;;;17.26;38.54;97224.38;4878386;29;20257;-80
2022/02/19 08:07:04;;;;;;;4.80;2.27;;;;;;;17.26;38.82;97226.91;4851430;29;20301;-82
2022/02/19 08:09:30;;;;;;;4.93;2.20;;;;;;;18.60;37.07;97463.81;4879190;29;20277;-82
2022/02/19 08:11:57;;;;;;;4.90;2.17;;;;;;;18.58;37.62;97466.31;4848215;29;20282;-81
2022/02/19 08:14:24;;;;;;;5.47;2.20;;;;;;;18.58;38.46;97480.72;4864055;29;20222;-82
2022/02/19 08:16:50;;;;;;;5.70;2.60;;;;;;;18.57;38.44;97478.97;4849169;29;20600;-80
2022/02/19 08:19:17;;;;;;;4.97;2.20;;;;;;;18.57;38.84;97486.63;4849533;29;20250;-80
2022/02/19 08:21:44;;;;;;;4.93;2.07;;;;;;;18.55;39.46;97484.00;4848301;29;20281;-79
2022/02/19 08:24:10;;;;;;;7.83;2.10;;;;;;;17.98;39.21;97385.84;4848501;29;20258;-81
2022/02/19 08:26:37;;;;;;;5.80;2.17;;;;;;;16.83;39.81;97196.34;4848288;29;20230;-80
2022/02/19 08:29:05;;;;;;;5.00;2.23;;;;;;;18.54;38.98;97491.56;4848909;29;20206;-81
2022/02/19 08:31:34;;;;;;;4.90;2.10;;;;;;;18.54;38.90;97500.09;4848757;29;20494;-81
2022/02/19 08:34:01;;;;;;;6.83;2.57;;;;;;;17.87;38.97;97384.53;4849262;29;20206;-79
2022/02/19 08:36:27;;;;;;;4.43;2.10;;;;;;;17.54;39.34;97341.59;4849113;29;20277;-82
2022/02/19 08:38:54;;;;;;;4.03;2.30;;;;;;;18.52;38.91;97513.53;4850263;29;20240;-81
2022/02/19 08:41:21;;;;;;;5.30;2.20;;;;;;;15.34;39.00;96965.81;4845598;29;21176;-81
2022/02/19 08:43:47;;;;;;;5.07;2.27;;;;;;;18.51;39.08;97522.88;4845588;29;20658;-82
2022/02/19 08:46:14;;;;;;;4.00;2.00;;;;;;;18.51;39.38;97532.16;4878702;29;20305;-81
2022/02/19 08:48:41;;;;;;;4.63;2.17;;;;;;;18.46;39.74;97524.34;4847667;29;20262;-82
2022/02/19 08:51:07;;;;;;;4.20;1.87;;;;;;;18.52;39.85;97559.34;4849187;29;20231;-81
2022/02/19 08:53:35;;;;;;;4.33;2.00;;;;;;;18.12;39.47;97483.88;4860834;29;20615;-81
2022/02/19 08:56:02;;;;;;;3.00;1.60;;;;;;;18.50;39.71;97581.34;4848626;29;20518;-81
2022/02/19 08:58:29;;;;;;;3.37;2.10;;;;;;;18.50;40.26;97572.00;4848312;29;20214;-81
2022/02/19 09:00:56;;;;;;;4.20;1.83;;;;;;;18.50;39.33;97561.81;4847950;29;20278;-81
2022/02/19 09:03:23;;;;;;;4.40;1.90;;;;;;;17.94;39.54;97464.44;4846870;29;20669;-81
2022/02/19 09:05:50;;;;;;;4.33;2.07;;;;;;;18.07;39.67;97487.06;4848431;29;20282;-80
2022/02/19 09:08:17;;;;;;;4.13;1.87;;;;;;;18.18;39.80;97498.56;4858988;29;20267;-82
2022/02/19 09:10:44;;;;;;;4.00;1.87;;;;;;;18.29;39.71;97535.47;4847419;29;20266;-81
2022/02/19 09:13:10;;;;;;;3.23;2.10;;;;;;;18.48;39.81;97570.22;4848057;29;20214;-81
2022/02/19 09:15:38;;;;;;;4.03;1.90;;;;;;;18.48;39.89;97558.38;4848554;29;20278;-81
2022/02/19 09:18:07;;;;;;;3.87;2.17;;;;;;;18.31;40.08;97541.50;4848757;29;20206;-80
2022/02/19 09:20:35;;;;;;;3.47;2.00;;;;;;;17.32;39.97;97380.41;4848274;29;20209;-82
2022/02/19 09:23:01;;;;;;;3.57;2.10;;;;;;;16.57;40.22;97234.94;4848420;29;20238;-81
2022/02/19 09:25:28;;;;;;;2.97;1.90;;;;;;;16.41;39.99;97209.69;4862838;29;20285;-82
2022/02/19 09:27:55;;;;;;;3.50;2.07;;;;;;;18.46;39.85;97569.28;4863917;29;20229;-81
2022/02/19 09:30:22;;;;;;;3.13;1.90;;;;;;;18.41;39.33;97556.34;4878588;29;20257;-79
2022/02/19 09:32:49;;;;;;;4.93;2.10;;;;;;;17.41;39.53;97382.50;4862760;29;20779;-81
2022/02/19 09:35:16;;;;;;;3.13;1.90;;;;;;;17.25;39.26;97387.69;4878545;29;20285;-80
2022/02/19 09:37:42;;;;;;;3.23;2.03;;;;;;;17.24;39.42;97369.06;4847797;29;20821;-81
2022/02/19 09:40:10;;;;;;;4.00;1.97;;;;;;;17.93;39.11;97494.09;4847511;29;20249;-80
2022/02/19 09:42:37;;;;;;;3.97;2.20;;;;;;;17.55;39.23;97415.34;4862911;29;20230;-80
2022/02/19 09:45:05;;;;;;;3.43;2.03;;;;;;;17.60;39.19;97434.19;4862847;29;20230;-82
2022/02/19 09:47:32;;;;;;;3.50;2.00;;;;;;;18.48;38.99;97582.94;4862837;29;20368;-80
2022/02/19 09:49:58;;;;;;;4.03;2.07;;;;;;;18.09;38.44;97526.13;4859295;29;20195;-79
2022/02/19 09:52:25;;;;;;;3.80;2.23;;;;;;;17.61;38.25;97443.53;4872796;29;20281;-81
2022/02/19 09:54:55;;;;;;;5.40;2.13;;;;;;;18.46;37.88;97598.16;4862945;29;20692;-80
2022/02/19 09:57:22;;;;;;;4.53;2.00;;;;;;;18.46;38.37;97594.72;4848248;29;20206;-81
2022/02/19 09:59:48;;;;;;;4.27;2.00;;;;;;;17.76;38.52;97477.25;4878458;29;20202;-81
2022/02/19 10:02:15;;;;;;;5.67;2.10;;;;;;;18.45;38.25;97586.22;4859350;29;20199;-80
2022/02/19 10:04:44;;;;;;;5.60;2.00;;;;;;;17.34;38.36;97409.28;4877189;29;20250;-79
2022/02/19 10:07:16;;;;;;;4.87;2.20;;;;;;;15.33;38.54;97067.84;4847874;29;20246;-80
2022/02/19 10:09:46;;;;;;;3.67;2.00;;;;;;;15.59;38.91;97118.94;4847826;29;20230;-80
2022/02/19 10:12:14;;;;;;;2.53;1.83;;;;;;;17.86;39.24;97514.09;4844277;29;20227;-81
2022/02/19 10:14:42;;;;;;;2.80;1.70;;;;;;;17.78;39.26;97497.63;4855920;29;20263;-81
2022/02/19 10:17:15;;;;;;;3.67;2.10;;;;;;;18.45;39.64;97621.88;4847633;29;20198;-80
2022/02/19 10:19:57;;;;;;;5.57;2.20;;;;;;;17.20;39.82;97402.72;4878554;29;20214;-80
2022/02/19 10:22:34;;;;;;;3.37;1.90;;;;;;;18.46;39.87;97622.72;4864284;29;20293;-81
2022/02/19 10:25:02;;;;;;;6.67;2.30;;;;;;;18.46;39.93;97615.06;4881327;29;20253;-79
2022/02/19 10:28:10;;;;;;;3.43;1.93;;;;;;;17.86;39.88;97524.28;4881507;29;20218;-80
2022/02/19 10:30:31;;;;;;;3.20;1.90;;;;;;;17.26;39.88;97404.69;4884088;29;20277;-80
2022/02/19 10:33:00;;;;;;;4.80;2.40;;;;;;;16.72;39.50;97324.41;4865755;29;20557;-80
2022/02/19 10:35:40;;;;;;;5.40;1.93;;;;;;;17.31;38.54;97414.22;4866191;29;20226;-82
2022/02/19 10:38:08;;;;;;;5.57;2.30;;;;;;;16.80;38.59;97327.28;4851183;29;20564;-82
2022/02/19 10:40:43;;;;;;;5.07;2.07;;;;;;;18.44;38.75;97620.09;4864820;29;20290;-80
2022/02/19 10:43:17;;;;;;;5.23;2.33;;;;;;;17.37;38.91;97434.81;4897859;29;20280;-79
2022/02/19 10:45:54;;;;;;;3.80;2.30;;;;;;;16.58;39.17;97306.84;4844573;29;20214;-82
2022/02/19 10:48:32;;;;;;;5.23;2.30;;;;;;;18.43;39.25;97626.00;4874864;29;20218;-82
2022/02/19 10:51:18;;;;;;;6.10;1.97;;;;;;;18.43;39.22;97628.53;4848305;29;20222;-80
2022/02/19 10:53:55;;;;;;;4.17;2.10;;;;;;;18.13;39.46;97582.28;4881173;29;20206;-81
2022/02/19 10:56:22;;;;;;;4.17;1.80;;;;;;;17.43;39.77;97458.00;4866423;29;20289;-81
2022/02/19 10:59:04;;;;;;;3.37;2.00;;;;;;;18.44;39.82;97626.88;4865696;29;20206;-80
2022/02/19 11:01:50;;;;;;;3.97;2.17;;;;;;;16.70;39.82;97315.88;4880948;29;20581;-81
2022/02/19 11:04:18;;;;;;;4.53;2.03;;;;;;;12.58;40.10;96603.22;4862373;29;20911;-81
2022/02/19 11:06:45;;;;;;;3.77;2.07;;;;;;;17.27;40.03;97411.50;4857913;29;20337;-82
2022/02/19 11:09:12;;;;;;;3.97;1.90;;;;;;;17.32;40.11;97421.03;4865732;29;20259;-81
2022/02/19 11:11:41;;;;;;;4.53;2.20;;;;;;;17.36;39.92;97430.56;4864174;29;20613;-81
2022/02/19 11:14:08;;;;;;;4.27;2.07;;;;;;;17.47;40.25;97459.84;4865724;29;20296;-82
2022/02/19 11:16:35;;;;;;;4.20;1.87;;;;;;;18.44;39.94;97609.06;4862186;29;20283;-83
2022/02/19 11:19:02;;;;;;;3.73;2.00;;;;;;;17.84;39.98;97506.41;4862284;29;20233;-81
2022/02/19 11:21:35;;;;;;;5.33;2.37;;;;;;;16.59;39.77;97290.81;4862528;29;20290;-80
2022/02/19 11:24:03;;;;;;;4.13;2.03;;;;;;;17.91;39.90;97512.59;4846326;29;20289;-80
2022/02/19 11:26:30;;;;;;;4.50;2.10;;;;;;;18.43;39.70;97599.69;4848356;29;20335;-80
2022/02/19 11:29:10;;;;;;;6.00;2.10;;;;;;;18.08;38.75;97548.16;4865302;29;20278;-82
2022/02/19 11:31:37;;;;;;;4.27;2.10;;;;;;;18.32;38.82;97578.84;4852625;29;20297;-80
2022/02/19 11:34:05;;;;;;;4.30;2.20;;;;;;;17.84;39.17;97508.94;4881861;29;20282;-80
2022/02/19 11:36:32;;;;;;;3.33;2.20;;;;;;;18.42;39.22;97600.50;4852009;29;20191;-79
2022/02/19 11:38:59;;;;;;;4.07;2.30;;;;;;;18.43;39.54;97607.31;4867756;29;20227;-80
2022/02/19 11:41:37;;;;;;;3.37;1.70;;;;;;;16.12;39.57;97210.03;4851516;29;20695;-80
2022/02/19 11:44:28;;;;;;;4.63;2.33;;;;;;;18.43;39.92;97618.38;4898864;29;20225;-78
2022/02/19 11:46:55;;;;;;;4.27;2.03;;;;;;;17.63;39.75;97467.38;4873666;29;20218;-83
2022/02/19 11:49:26;;;;;;;2.77;1.73;;;;;;;18.43;39.60;97610.72;4864197;29;20259;-80
2022/02/19 11:52:01;;;;;;;5.30;2.17;;;;;;;18.43;39.86;97615.81;4848572;29;20211;-80
2022/02/19 11:54:48;;;;;;;3.93;1.87;;;;;;;18.42;39.72;97615.75;4866767;29;20227;-81
2022/02/19 11:57:16;;;;;;;2.77;1.70;;;;;;;17.60;39.70;97468.88;4864934;29;20195;-81
2022/02/19 11:59:44;;;;;;;3.73;1.90;;;;;;;18.43;39.76;97617.50;4859229;29;20304;-80
2022/02/19 12:02:23;;;;;;;4.57;1.90;;;;;;;17.23;39.84;97419.78;4863591;29;20242;-81
2022/02/19 12:05:17;;;;;;;3.30;1.90;;;;;;;18.42;39.93;97603.91;4873692;29;20225;-80
2022/02/19 12:08:00;;;;;;;2.57;1.60;;;;;;;16.98;39.95;97367.03;4876628;29;20313;-77
2022/02/19 12:10:28;;;;;;;1.93;1.60;;;;;;;18.42;39.86;97620.84;4865204;29;20233;-78
2022/02/19 12:13:05;;;;;;;4.03;1.90;;;;;;;17.42;40.07;97466.38;4879690;29;20234;-77
2022/02/19 12:15:32;;;;;;;2.87;1.70;;;;;;;17.71;40.11;97500.72;4882746;29;20229;-79
2022/02/19 12:17:58;;;;;;;4.17;1.93;;;;;;;17.32;39.99;97426.13;4850500;29;20228;-80
2022/02/19 12:20:31;;;;;;;3.50;2.00;;;;;;;17.47;39.92;97452.22;4867272;29;20205;-81
2022/02/19 12:22:58;;;;;;;3.00;1.70;;;;;;;18.03;40.20;97543.69;4864382;29;20254;-81
2022/02/19 12:25:37;;;;;;;2.33;1.57;;;;;;;18.43;40.27;97625.13;4879974;29;20596;-80
2022/02/19 12:28:17;;;;;;;2.87;1.80;;;;;;;17.54;40.48;97458.47;4856340;29;20218;-81
2022/02/19 12:30:44;;;;;;;4.73;1.90;;;;;;;17.92;40.51;97520.31;4848239;29;20560;-79
2022/02/19 12:33:11;;;;;;;2.93;1.67;;;;;;;17.92;40.42;97522.00;4864690;29;20244;-77
2022/02/19 12:35:40;;;;;;;2.97;1.70;;;;;;;17.11;40.46;97361.69;4864200;29;20261;-78
2022/02/19 12:38:07;;;;;;;3.80;1.73;;;;;;;18.14;40.40;97552.63;4864119;29;20198;-76
2022/02/19 12:40:35;;;;;;;2.80;1.57;;;;;;;18.44;40.13;97598.91;4879660;29;20230;-78
2022/02/19 12:43:01;;;;;;;2.83;2.00;;;;;;;18.43;40.31;97600.56;4864222;29;20209;-77
2022/02/19 12:45:31;;;;;;;2.23;1.73;;;;;;;18.11;40.10;97553.38;4878738;29;20226;-78
2022/02/19 12:47:58;;;;;;;4.10;2.03;;;;;;;17.51;40.24;97446.50;4880058;29;20658;-80
2022/02/19 12:50:25;;;;;;;2.37;1.93;;;;;;;17.96;40.21;97514.56;4879071;29;20206;-78
2022/02/19 12:52:52;;;;;;;3.10;1.70;;;;;;;17.60;40.27;97461.25;4870227;29;20233;-77
2022/02/19 12:55:19;;;;;;;3.20;1.97;;;;;;;18.13;39.94;97554.31;4873094;29;20218;-78
2022/02/19 12:57:51;;;;;;;2.43;1.80;;;;;;;17.03;39.92;97370.66;4858020;29;20278;-77
2022/02/19 13:00:19;;;;;;;3.17;1.87;;;;;;;17.28;40.00;97398.88;4852148;29;20286;-78
2022/02/19 13:02:45;;;;;;;4.10;1.60;;;;;;;18.43;38.52;97595.47;4871545;29;20200;-78
2022/02/19 13:05:13;;;;;;;2.97;1.97;;;;;;;18.06;37.96;97531.94;4847043;29;20343;-77
2022/02/19 13:07:40;;;;;;;2.93;1.80;;;;;;;17.52;37.06;97439.72;4863921;29;20305;-77
2022/02/19 13:10:08;;;;;;;5.40;1.67;;;;;;;17.41;36.13;97425.69;4858691;29;20286;-78
2022/02/19 13:12:38;;;;;;;3.27;1.97;;;;;;;17.34;36.67;97413.50;4876546;29;20285;-79
2022/02/19 13:15:08;;;;;;;7.27;2.13;;;;;;;15.92;37.24;97162.63;4848819;29;20218;-79
2022/02/19 13:17:35;;;;;;;4.50;2.03;;;;;;;17.85;37.33;97492.00;4855010;29;20608;-80
2022/02/19 13:20:18;;;;;;;4.20;2.10;;;;;;;17.48;37.90;97418.41;4842396;29;20298;-79
2022/02/19 13:22:48;;;;;;;3.27;1.93;;;;;;;17.28;38.35;97392.91;4863968;29;20202;-80
2022/02/19 13:25:18;;;;;;;4.10;2.03;;;;;;;18.26;38.17;97554.84;4901887;23;20230;-86
2022/02/19 13:27:46;;;;;;;2.57;1.60;;;;;;;17.98;38.73;97499.38;4851287;29;20214;-86
2022/02/19 13:30:17;;;;;;;4.93;1.93;;;;;;;18.16;38.86;97541.72;4848870;29;20213;-86
2022/02/19 13:32:48;;;;;;;4.27;2.00;;;;;;;18.42;39.16;97585.22;4861036;29;20240;-86
2022/02/19 13:35:25;;;;;;;3.10;1.67;;;;;;;18.42;39.11;97585.22;4850504;29;20644;-86
2022/02/19 13:37:51;;;;;;;2.53;1.63;;;;;;;18.31;39.28;97564.38;4860029;29;20242;-87
2022/02/19 13:40:25;;;;;;;4.80;1.57;;;;;;;18.41;39.04;97579.25;4850069;29;20205;-86
2022/02/19 13:42:53;;;;;;;2.97;1.80;;;;;;;18.42;39.70;97583.56;4849133;29;20230;-86
2022/02/19 13:45:44;;;;;;;1.93;1.60;;;;;;;18.13;39.38;97526.34;4863460;29;20240;-86
2022/02/19 13:48:13;;;;;;;3.77;1.60;;;;;;;18.43;39.62;97579.31;4852930;29;20230;-86
2022/02/19 13:50:48;;;;;;;2.73;1.90;;;;;;;18.23;40.04;97529.25;4861917;29;20633;-86
2022/02/19 13:53:17;;;;;;;2.23;1.50;;;;;;;18.41;40.17;97569.09;4851953;29;20206;-86
2022/02/19 13:55:48;;;;;;;1.70;1.60;;;;;;;18.15;39.88;97521.31;4861099;29;20246;-86
2022/02/19 13:58:41;;;;;;;2.60;1.57;;;;;;;17.85;40.40;97480.19;4858367;29;20206;-86
2022/02/19 14:01:15;;;;;;;3.83;2.17;;;;;;;17.83;39.99;97468.22;4852406;29;20270;-86
2022/02/19 14:03:48;;;;;;;2.47;1.50;;;;;;;18.17;40.87;97517.13;4852368;29;20627;-86
2022/02/19 14:06:36;;;;;;;1.83;1.40;;;;;;;18.43;40.38;97559.84;4866399;29;20230;-86